Time;durP1;ratioP1;P1;durP2;ratioP2;P2;SDS_P1;SDS_P2;PMS_P1;PMS_P2;Temp;Humidity;BMP_temperature;BMP_pressure;BME280_temperature;BME280_humidity;BME280_pressure;Samples;Min_cycle;Max_cycle;Signal;HPM_P1;HPM_P2
2022/05/03 00:01:48;;;;;;;14.90;6.60;;;;;;;-144.47;48.38;53263.28;5030900;28;20045;-70
2022/05/03 00:04:49;;;;;;;22.10;7.45;;;;;;;-144.47;48.36;53263.28;5047074;28;20094;-72
2022/05/03 00:07:26;;;;;;;16.23;7.15;;;;;;;-144.47;48.43;53271.22;5010540;28;20049;-68
2022/05/03 00:10:08;;;;;;;16.30;7.40;;;;;;;-144.47;48.39;53249.38;5028635;28;20116;-71
2022/05/03 00:12:44;;;;;;;15.07;6.97;;;;;;;-144.47;48.58;53259.31;5028126;28;20052;-71
2022/05/03 00:15:12;;;;;;;15.38;8.10;;;;;;;-144.47;48.69;53265.25;5022333;28;20033;-71
2022/05/03 00:17:38;;;;;;;10.38;6.78;;;;;;;-144.47;48.78;53241.44;5023545;28;20538;-73
2022/05/03 00:20:04;;;;;;;17.90;8.02;;;;;;;-144.47;48.74;53259.31;5029043;28;20107;-70
2022/05/03 00:22:32;;;;;;;13.93;8.02;;;;;;;-144.47;48.67;53259.31;5027792;28;20110;-69
2022/05/03 00:24:58;;;;;;;14.17;7.73;;;;;;;-144.47;48.77;53249.38;5021901;28;20095;-72
2022/05/03 00:27:27;;;;;;;13.43;7.45;;;;;;;-144.47;48.68;53243.41;5028651;28;20303;-70
2022/05/03 00:29:54;;;;;;;11.05;7.25;;;;;;;-144.47;48.67;53233.47;5027551;28;20041;-71
2022/05/03 00:32:23;;;;;;;14.05;7.60;;;;;;;-144.47;48.91;53227.53;5027807;28;20026;-69
2022/05/03 00:34:49;;;;;;;15.68;7.55;;;;;;;-144.47;48.54;53289.09;5009058;28;20046;-71
2022/05/03 00:37:15;;;;;;;18.60;8.10;;;;;;;-144.47;48.66;53273.22;5010669;28;20029;-71
2022/05/03 00:39:41;;;;;;;27.95;7.97;;;;;;;-144.47;48.73;53245.41;5028024;28;20082;-69
2022/05/03 00:42:17;;;;;;;18.60;7.35;;;;;;;-144.47;48.91;53295.06;5027270;28;20072;-70
2022/05/03 00:45:01;;;;;;;15.57;7.80;;;;;;;-144.47;49.03;53269.22;5025645;28;20038;-72
2022/05/03 00:47:29;;;;;;;13.45;7.65;;;;;;;-144.47;49.28;53287.13;5026500;28;20030;-68
2022/05/03 00:50:09;;;;;;;14.88;7.68;;;;;;;-144.47;49.45;53277.19;5026001;28;20114;-69
2022/05/03 00:52:37;;;;;;;14.63;7.28;;;;;;;-144.47;49.52;53275.19;5023453;28;20087;-70
2022/05/03 00:55:42;;;;;;;15.40;7.32;;;;;;;-144.47;49.51;53285.13;5027463;28;20025;-70
2022/05/03 00:58:32;;;;;;;12.10;7.25;;;;;;;-144.47;49.66;53261.28;5029926;28;20151;-72
2022/05/03 01:01:32;;;;;;;14.52;8.02;;;;;;;-144.47;49.88;53251.34;5029463;28;20025;-69
2022/05/03 01:04:10;;;;;;;13.82;7.15;;;;;;;-144.47;50.02;53253.34;5023314;28;20033;-71
2022/05/03 01:07:10;;;;;;;16.98;8.43;;;;;;;-144.47;49.91;53259.31;5028772;28;20057;-70
2022/05/03 01:09:35;;;;;;;15.60;8.40;;;;;;;-144.47;50.07;53271.22;5012721;28;20045;-67
2022/05/03 01:12:07;;;;;;;13.20;7.70;;;;;;;-144.47;50.69;53259.31;5028795;28;20030;-71
2022/05/03 01:15:00;;;;;;;16.88;8.75;;;;;;;-144.47;50.78;53295.06;5024656;28;20047;-71
2022/05/03 01:17:48;;;;;;;16.40;8.18;;;;;;;-144.47;51.53;53269.22;5009623;28;20036;-71
2022/05/03 01:20:24;;;;;;;13.52;7.40;;;;;;;-144.47;51.78;53293.06;5020951;28;20042;-68
2022/05/03 01:22:55;;;;;;;16.50;7.88;;;;;;;-144.47;52.03;53303.00;5028839;28;20037;-70
2022/05/03 01:25:50;;;;;;;17.50;8.20;;;;;;;-144.47;52.34;53285.13;5029548;28;20489;-71
2022/05/03 01:28:29;;;;;;;17.52;8.50;;;;;;;-144.47;52.42;53265.25;5023968;28;20041;-69
2022/05/03 01:30:57;;;;;;;25.77;7.85;;;;;;;-144.47;52.52;53287.13;5029306;28;20156;-71
2022/05/03 01:33:57;;;;;;;16.27;7.47;;;;;;;-144.47;52.67;53249.38;5029984;28;20034;-69
2022/05/03 01:36:45;;;;;;;14.77;8.32;;;;;;;-144.47;52.71;53316.91;5014288;28;20049;-69
2022/05/03 01:39:24;;;;;;;18.60;8.75;;;;;;;-144.47;52.67;53306.97;5027521;28;20051;-70
2022/05/03 01:41:57;;;;;;;18.35;8.45;;;;;;;-144.47;52.64;53293.06;5029429;28;20124;-68
2022/05/03 01:44:40;;;;;;;13.60;8.57;;;;;;;-144.47;52.94;53308.97;5031447;28;20154;-69
2022/05/03 01:47:33;;;;;;;15.48;8.20;;;;;;;-144.47;53.20;53253.34;5011747;28;20036;-68
2022/05/03 01:50:18;;;;;;;22.63;8.48;;;;;;;-144.47;53.36;53273.22;5028496;28;20522;-71
2022/05/03 01:53:08;;;;;;;11.70;7.20;;;;;;;-144.47;53.46;53285.13;5026506;28;20538;-71
2022/05/03 01:55:50;;;;;;;17.35;8.35;;;;;;;-144.47;53.58;53332.81;5028917;28;20032;-68
2022/05/03 01:58:41;;;;;;;19.25;9.10;;;;;;;-144.47;53.68;53305.00;5031012;28;20053;-67
2022/05/03 02:01:19;;;;;;;14.73;8.90;;;;;;;-144.47;53.76;53305.00;5018485;28;20103;-70
2022/05/03 02:03:48;;;;;;;14.55;8.10;;;;;;;-144.47;53.86;53277.19;5031591;28;20148;-71
2022/05/03 02:06:15;;;;;;;16.08;9.27;;;;;;;-144.47;54.13;53285.13;5027533;28;20030;-69
2022/05/03 02:08:55;;;;;;;14.40;8.63;;;;;;;-144.47;54.28;53269.22;5035526;28;20030;-67
2022/05/03 02:11:38;;;;;;;22.25;9.70;;;;;;;-144.47;54.28;53271.22;5024834;28;20056;-70
2022/05/03 02:17:03;;;;;;;15.98;9.25;;;;;;;-144.47;54.61;53301.03;5024821;28;20032;-71
2022/05/03 02:20:06;;;;;;;17.50;9.27;;;;;;;-144.47;54.80;53289.09;5024597;28;20036;-69
2022/05/03 02:22:44;;;;;;;14.80;8.80;;;;;;;-144.47;54.95;53277.19;5029807;28;20489;-69
2022/05/03 02:25:34;;;;;;;22.45;9.30;;;;;;;-144.47;55.11;53299.03;5030343;28;20071;-71
2022/05/03 02:28:04;;;;;;;30.92;9.70;;;;;;;-144.47;55.52;53271.22;5031299;28;20410;-70
2022/05/03 02:30:33;;;;;;;24.42;9.27;;;;;;;-144.47;55.86;53301.03;5029130;28;20196;-68
2022/05/03 02:33:17;;;;;;;14.90;8.95;;;;;;;-144.47;55.91;53257.31;5001285;28;20045;-71
2022/05/03 02:35:48;;;;;;;14.65;9.35;;;;;;;-144.47;55.97;53275.19;5012182;28;20041;-68
2022/05/03 02:38:20;;;;;;;20.05;10.45;;;;;;;-144.47;56.21;53312.94;5030120;28;20037;-70
2022/05/03 02:40:51;;;;;;;22.60;9.68;;;;;;;-144.47;56.24;53297.03;5029138;28;20040;-69
2022/05/03 02:43:17;;;;;;;20.75;10.45;;;;;;;-144.47;56.29;53273.22;5028597;28;20650;-68
2022/05/03 02:45:53;;;;;;;22.02;11.45;;;;;;;-144.47;56.36;53299.03;5030397;28;20037;-73
2022/05/03 02:48:48;;;;;;;25.42;11.90;;;;;;;-144.47;56.29;53291.09;5029617;28;20037;-69
2022/05/03 02:51:17;;;;;;;34.72;13.20;;;;;;;-144.47;56.02;53322.88;5016206;28;20029;-71
2022/05/03 02:53:47;;;;;;;30.13;12.73;;;;;;;-144.47;56.17;53291.09;5028356;28;20498;-69
2022/05/03 02:56:15;;;;;;;23.60;12.25;;;;;;;-144.47;55.82;53301.03;5029675;28;20044;-71
2022/05/03 02:59:01;;;;;;;25.67;11.70;;;;;;;-144.47;56.80;53273.22;5031091;28;20033;-68
2022/05/03 03:02:04;;;;;;;29.10;12.80;;;;;;;-144.47;56.60;53303.00;5028899;28;20109;-69
2022/05/03 03:04:40;;;;;;;27.35;11.52;;;;;;;-144.47;56.94;53269.22;5028980;28;20029;-70
2022/05/03 03:07:06;;;;;;;21.73;11.13;;;;;;;-144.47;57.10;53360.63;5029744;28;20086;-71
2022/05/03 03:09:43;;;;;;;27.73;11.95;;;;;;;-144.47;57.06;53338.75;5027659;28;20132;-69
2022/05/03 03:12:21;;;;;;;22.38;11.57;;;;;;;-144.47;56.69;53299.03;5021396;28;20025;-71
2022/05/03 03:14:48;;;;;;;18.92;11.00;;;;;;;-144.47;56.42;53320.88;5031865;28;20487;-71
2022/05/03 03:17:20;;;;;;;17.88;10.48;;;;;;;-144.47;56.42;53308.97;5022594;28;20292;-69
2022/05/03 03:20:04;;;;;;;22.83;11.73;;;;;;;-144.47;56.71;53297.03;5029727;28;20033;-70
2022/05/03 03:22:34;;;;;;;18.77;11.10;;;;;;;-144.47;56.76;53301.03;5009052;28;20326;-69
2022/05/03 03:25:02;;;;;;;18.33;11.52;;;;;;;-144.47;56.76;53316.91;5024482;28;20017;-69
2022/05/03 03:27:31;;;;;;;20.48;12.15;;;;;;;-144.47;57.00;53316.91;5031500;28;20127;-68
2022/05/03 03:29:57;;;;;;;23.23;11.73;;;;;;;-144.47;57.11;53328.81;5015190;28;20034;-71
2022/05/03 03:32:25;;;;;;;19.10;10.93;;;;;;;-144.47;57.31;53291.09;5029447;28;20040;-71
2022/05/03 03:34:54;;;;;;;17.67;11.35;;;;;;;-144.47;57.40;53277.19;5012398;28;20045;-69
2022/05/03 03:37:23;;;;;;;30.40;12.60;;;;;;;-144.47;57.27;53316.91;5030375;28;20033;-69
2022/05/03 03:39:48;;;;;;;23.75;12.70;;;;;;;-144.47;57.01;53310.94;5030209;28;20025;-69
2022/05/03 03:42:13;;;;;;;23.88;12.43;;;;;;;-144.47;57.09;53354.66;5028158;28;20091;-72
2022/05/03 03:44:39;;;;;;;25.70;12.50;;;;;;;-144.47;57.20;53332.81;5028162;28;20115;-72
2022/05/03 03:47:04;;;;;;;24.08;11.93;;;;;;;-144.47;57.30;53293.06;5027944;28;20099;-70
2022/05/03 03:49:30;;;;;;;19.42;11.85;;;;;;;-144.47;57.45;53301.03;5027858;28;20444;-70
2022/05/03 03:51:59;;;;;;;20.83;12.40;;;;;;;-144.47;57.44;53293.06;5027140;28;20022;-71
2022/05/03 03:54:25;;;;;;;30.30;12.75;;;;;;;-144.47;57.13;53287.13;5030204;28;20111;-70
2022/05/03 03:56:52;;;;;;;29.17;12.40;;;;;;;-144.47;57.32;53310.94;5029025;28;20045;-69
2022/05/03 03:59:18;;;;;;;20.27;11.75;;;;;;;-144.47;57.24;53310.94;5029522;28;20053;-70
2022/05/03 04:01:44;;;;;;;23.38;12.45;;;;;;;-144.47;57.35;53322.88;5028360;28;20041;-73
2022/05/03 04:04:11;;;;;;;21.08;12.20;;;;;;;-144.47;57.41;53308.97;5028794;28;20021;-69
2022/05/03 04:06:37;;;;;;;24.00;12.48;;;;;;;-144.47;57.93;53293.06;5009654;28;20021;-71
2022/05/03 04:09:02;;;;;;;22.48;12.90;;;;;;;-144.47;57.71;53310.94;5027296;28;20072;-71
2022/05/03 04:11:28;;;;;;;20.60;12.10;;;;;;;-144.47;58.16;53368.56;5027448;28;20045;-68
2022/05/03 04:13:53;;;;;;;26.42;13.93;;;;;;;-144.47;58.17;53320.88;5027314;28;20615;-72
2022/05/03 04:16:19;;;;;;;37.40;13.88;;;;;;;-144.47;58.22;53287.13;5027604;28;20064;-68
2022/05/03 04:18:44;;;;;;;32.40;14.68;;;;;;;-144.47;58.31;53305.00;5027463;28;20377;-73
2022/05/03 04:21:20;;;;;;;28.95;13.57;;;;;;;-144.47;58.13;53295.06;5026629;28;20025;-68
2022/05/03 04:23:45;;;;;;;27.27;14.27;;;;;;;-144.47;58.09;53287.13;5027317;28;20034;-70
2022/05/03 04:26:12;;;;;;;27.50;13.70;;;;;;;-144.47;58.03;53279.16;5026891;28;20064;-72
2022/05/03 04:28:40;;;;;;;26.48;13.63;;;;;;;-144.47;57.86;53328.81;5027782;28;20029;-71
2022/05/03 04:31:06;;;;;;;23.75;12.63;;;;;;;-144.47;58.07;53312.94;5030728;28;20136;-69
2022/05/03 04:33:31;;;;;;;27.85;14.05;;;;;;;-144.47;57.88;53291.09;5012904;28;20438;-67
2022/05/03 04:35:56;;;;;;;22.13;12.50;;;;;;;-144.47;57.87;53312.94;5031297;28;20593;-71
2022/05/03 04:38:22;;;;;;;22.85;12.95;;;;;;;-144.47;57.83;53281.16;5013400;28;20192;-68
2022/05/03 04:40:47;;;;;;;25.48;13.68;;;;;;;-144.47;57.81;53340.75;5031027;28;20484;-72
2022/05/03 04:43:12;;;;;;;22.23;13.80;;;;;;;-144.47;58.13;53320.88;5030960;28;20029;-70
2022/05/03 04:45:38;;;;;;;37.45;14.50;;;;;;;-144.47;58.23;53297.03;5031285;28;20560;-71
2022/05/03 04:48:04;;;;;;;24.38;13.50;;;;;;;-144.47;58.06;53305.00;5028787;28;20033;-70
2022/05/03 04:50:29;;;;;;;32.20;15.27;;;;;;;-144.47;57.89;53285.13;5033568;28;20375;-70
2022/05/03 04:52:56;;;;;;;24.10;13.57;;;;;;;-144.47;57.80;53314.91;5016156;28;20625;-71
2022/05/03 04:55:23;;;;;;;34.00;13.77;;;;;;;-144.47;57.79;53332.81;5032048;28;20033;-69
2022/05/03 04:57:49;;;;;;;25.50;15.77;;;;;;;-144.47;57.73;53330.81;5011191;28;20026;-70
2022/05/03 05:00:14;;;;;;;23.50;14.27;;;;;;;-144.47;57.73;53324.84;5024483;28;20517;-71
2022/05/03 05:02:40;;;;;;;33.08;15.70;;;;;;;-144.47;57.68;53320.88;5017524;28;20390;-68
2022/05/03 05:05:06;;;;;;;28.80;14.50;;;;;;;-144.47;57.47;53287.13;5032066;28;20063;-70
2022/05/03 05:07:31;;;;;;;23.98;14.00;;;;;;;-144.47;57.21;53269.22;5015082;28;20053;-69
2022/05/03 05:12:40;;;;;;;28.45;13.88;;;;;;;-144.47;57.03;53301.03;5031007;28;20056;-68
2022/05/03 05:15:06;;;;;;;26.10;13.80;;;;;;;-144.47;56.65;53338.75;5029985;28;20037;-71
2022/05/03 05:17:35;;;;;;;23.23;14.02;;;;;;;-144.47;56.52;53293.06;5029884;28;20040;-71
2022/05/03 05:20:00;;;;;;;40.65;15.95;;;;;;;-144.47;56.31;53305.00;5030152;28;20033;-69
2022/05/03 05:22:25;;;;;;;30.88;14.50;;;;;;;-144.47;56.09;53306.97;5029502;28;20041;-69
2022/05/03 05:24:51;;;;;;;26.70;13.30;;;;;;;-144.47;55.81;53318.91;5029919;28;20033;-69
2022/05/03 05:27:17;;;;;;;26.25;14.32;;;;;;;-144.47;56.32;53277.19;5029470;28;20037;-69
2022/05/03 05:29:42;;;;;;;30.02;15.82;;;;;;;-144.47;55.73;53328.81;5028466;28;20073;-71
2022/05/03 05:32:08;;;;;;;35.13;14.02;;;;;;;-144.47;55.43;53293.06;5012066;28;20033;-72
2022/05/03 05:34:33;;;;;;;26.67;13.80;;;;;;;-144.47;55.30;53275.19;5029708;28;20113;-71
2022/05/03 05:36:59;;;;;;;24.35;13.00;;;;;;;-144.47;55.02;53306.97;5030236;28;20025;-71
2022/05/03 05:39:25;;;;;;;25.65;13.63;;;;;;;-144.47;54.99;53289.09;5029373;28;20045;-71
2022/05/03 05:41:59;;;;;;;26.17;12.85;;;;;;;-144.47;54.89;53293.06;5027465;28;20049;-68
2022/05/03 05:44:30;;;;;;;21.90;12.82;;;;;;;-144.47;54.77;53318.91;5012226;28;20065;-70
2022/05/03 05:46:56;;;;;;;32.25;13.45;;;;;;;-144.47;54.88;53303.00;5004442;28;20151;-72
2022/05/03 05:49:22;;;;;;;24.98;13.63;;;;;;;-144.47;54.77;53275.19;5003361;28;20057;-68
2022/05/03 05:51:47;;;;;;;24.83;13.25;;;;;;;-144.47;54.42;53322.88;5029078;28;20037;-71
2022/05/03 05:54:13;;;;;;;24.52;13.13;;;;;;;-144.47;54.00;53310.94;5029757;28;20112;-72
2022/05/03 05:56:42;;;;;;;26.25;12.85;;;;;;;-144.47;54.03;53247.38;5069833;22;20053;-69
2022/05/03 05:59:07;;;;;;;;;;;;;;;-144.47;53.89;53291.09;5050918;28;20029;-66
2022/05/03 06:01:37;;;;;;;26.63;12.60;;;;;;;-144.47;53.78;53281.16;5049396;28;19916;-67
2022/05/03 06:04:03;;;;;;;26.85;12.57;;;;;;;-144.47;53.56;53271.22;5051197;28;20020;-66
2022/05/03 06:06:28;;;;;;;42.08;15.27;;;;;;;-144.47;53.66;53287.13;5059136;28;20123;-66
2022/05/03 06:08:54;;;;;;;28.17;13.50;;;;;;;-144.47;53.26;53305.00;5067235;28;20117;-67
2022/05/03 06:11:19;;;;;;;25.52;12.07;;;;;;;-144.47;53.11;53299.03;5067781;28;20059;-66
2022/05/03 06:13:44;;;;;;;23.55;12.77;;;;;;;-144.47;52.71;53293.06;5069351;28;20033;-67
2022/05/03 06:16:11;;;;;;;25.73;12.50;;;;;;;-144.47;52.69;53303.00;5059229;28;20032;-67
2022/05/03 06:18:37;;;;;;;19.95;12.00;;;;;;;-144.47;52.54;53279.16;5064442;28;20439;-67
2022/05/03 06:21:05;;;;;;;26.27;12.68;;;;;;;-144.47;52.29;53287.13;5057418;28;20537;-65
2022/05/03 06:23:31;;;;;;;25.63;12.35;;;;;;;-144.47;51.98;53253.34;5065580;28;20059;-66
2022/05/03 06:25:58;;;;;;;22.50;12.65;;;;;;;-144.47;52.02;53261.28;5059692;28;20637;-67
2022/05/03 06:28:23;;;;;;;25.10;11.63;;;;;;;-144.47;51.77;53303.00;5063484;28;20032;-69
2022/05/03 06:30:49;;;;;;;29.55;12.30;;;;;;;-144.47;51.94;53308.97;5051693;28;20029;-67
2022/05/03 06:33:14;;;;;;;24.45;11.98;;;;;;;-144.47;51.73;53273.22;5067907;28;20032;-70
2022/05/03 06:35:39;;;;;;;29.40;11.98;;;;;;;-144.47;51.39;53267.25;5058379;28;20516;-68
2022/05/03 06:38:05;;;;;;;21.33;11.20;;;;;;;-144.47;51.02;53281.16;5068832;28;20137;-69
2022/05/03 06:40:30;;;;;;;25.73;12.48;;;;;;;-144.47;51.34;53316.91;5068938;28;20040;-67
2022/05/03 06:42:55;;;;;;;27.35;11.80;;;;;;;-144.47;51.49;53277.19;5064559;28;20027;-68
2022/05/03 06:45:20;;;;;;;27.63;11.57;;;;;;;-144.47;51.11;53245.41;5069156;28;20404;-67
2022/05/03 06:47:48;;;;;;;25.70;11.10;;;;;;;-144.47;50.94;53308.97;5059738;28;20067;-69
2022/05/03 06:50:14;;;;;;;27.58;12.45;;;;;;;-144.47;50.70;53269.22;5058414;28;20122;-67
2022/05/03 06:52:39;;;;;;;22.77;12.02;;;;;;;-144.47;50.45;53310.94;5061874;28;20037;-68
2022/05/03 06:55:08;;;;;;;22.35;11.18;;;;;;;-144.47;50.10;53287.13;5066011;28;20424;-68
2022/05/03 06:57:34;;;;;;;16.27;10.10;;;;;;;-144.47;49.44;53253.34;5051214;28;20063;-68
2022/05/03 07:00:05;;;;;;;20.55;10.55;;;;;;;-144.47;49.44;53257.31;5068644;28;20116;-67
2022/05/03 07:02:34;;;;;;;29.58;10.77;;;;;;;-144.47;49.29;53231.50;5068851;28;20058;-66
2022/05/03 07:05:00;;;;;;;22.10;11.60;;;;;;;-144.47;49.21;53251.34;5068972;28;20485;-66
2022/05/03 07:07:27;;;;;;;18.95;11.15;;;;;;;-144.47;49.29;53253.34;5072936;28;20051;-69
2022/05/03 07:09:52;;;;;;;18.98;10.57;;;;;;;-144.47;49.21;53269.22;5059318;28;20024;-67
2022/05/03 07:12:17;;;;;;;21.70;10.68;;;;;;;-144.47;49.38;53243.41;5063497;28;20158;-66
2022/05/03 07:14:43;;;;;;;15.73;9.45;;;;;;;-144.47;48.92;53263.28;5058828;28;20045;-68
2022/05/03 07:17:08;;;;;;;25.05;10.48;;;;;;;-144.47;48.46;53247.38;5065783;28;20049;-65
2022/05/03 07:25:01;;;;;;;20.75;10.57;;;;;;;-144.47;47.92;53261.28;5069543;28;20047;-66
2022/05/03 07:27:28;;;;;;;23.10;10.23;;;;;;;-144.47;47.78;53219.56;5068398;28;20036;-67
2022/05/03 07:29:53;;;;;;;18.30;9.88;;;;;;;-144.47;47.66;53265.25;5068518;28;20540;-67
2022/05/03 07:32:19;;;;;;;24.35;10.80;;;;;;;-144.47;47.99;53289.09;5053746;28;20033;-68
2022/05/03 07:34:45;;;;;;;20.08;10.70;;;;;;;-144.47;48.04;53231.50;5068484;28;20098;-67
2022/05/03 07:37:10;;;;;;;17.42;10.00;;;;;;;-144.47;47.52;53225.53;5055757;28;20017;-65
2022/05/03 07:39:35;;;;;;;20.27;10.15;;;;;;;-144.47;47.41;53207.66;5062947;28;20023;-66
2022/05/03 07:42:01;;;;;;;24.00;10.75;;;;;;;-144.47;47.67;53233.47;5068109;28;20702;-67
2022/05/03 07:44:26;;;;;;;22.88;10.77;;;;;;;-144.47;46.86;53237.44;5060450;28;20468;-68
2022/05/03 07:46:52;;;;;;;24.52;10.32;;;;;;;-144.47;46.34;53243.41;5067235;28;20400;-68
2022/05/03 07:49:17;;;;;;;16.02;9.50;;;;;;;-144.47;45.77;53231.50;5068206;28;20031;-66
2022/05/03 07:51:42;;;;;;;28.67;9.52;;;;;;;-144.47;45.07;53245.41;5068034;28;20051;-68
2022/05/03 07:54:09;;;;;;;15.35;8.73;;;;;;;-144.47;44.36;53225.53;5066639;28;20029;-67
2022/05/03 07:56:35;;;;;;;21.77;9.80;;;;;;;-144.47;45.06;53253.34;5067708;28;20242;-65
2022/05/03 07:59:00;;;;;;;16.20;9.30;;;;;;;-144.47;44.89;53251.34;5067452;28;20651;-66
2022/05/03 08:01:25;;;;;;;19.10;9.30;;;;;;;-144.47;44.76;53225.53;5067427;28;20021;-66
2022/05/03 08:03:51;;;;;;;19.27;8.68;;;;;;;-144.47;43.96;53241.44;5062186;28;20036;-69
2022/05/03 08:06:16;;;;;;;15.95;7.78;;;;;;;-144.47;41.62;53231.50;5072684;28;20187;-65
2022/05/03 08:08:41;;;;;;;16.27;7.95;;;;;;;-144.47;41.57;53219.56;5072516;28;20158;-67
2022/05/03 08:11:06;;;;;;;20.17;7.75;;;;;;;-144.47;42.00;53235.47;5070516;28;20397;-65
2022/05/03 08:13:32;;;;;;;24.20;7.68;;;;;;;-144.47;41.44;53227.53;5069782;28;20032;-67
2022/05/03 08:15:57;;;;;;;22.45;7.57;;;;;;;-144.47;40.72;53195.75;5068392;28;20438;-68
2022/05/03 08:18:23;;;;;;;13.80;7.35;;;;;;;-144.47;40.57;53231.50;5068345;28;20040;-67
2022/05/03 08:20:48;;;;;;;16.52;7.97;;;;;;;-144.47;40.76;53231.50;5058876;28;20028;-66
2022/05/03 08:23:14;;;;;;;21.25;7.13;;;;;;;-144.47;40.51;53217.59;5067786;28;20120;-65
2022/05/03 08:25:39;;;;;;;27.48;8.23;;;;;;;-144.47;40.78;53237.44;5052476;28;20051;-69
2022/05/03 08:28:05;;;;;;;19.50;7.47;;;;;;;-144.47;40.92;53211.63;5054580;28;20017;-65
2022/05/03 08:30:31;;;;;;;14.93;6.88;;;;;;;-144.47;40.88;53213.63;5066414;28;20132;-69
2022/05/03 08:32:56;;;;;;;17.92;8.40;;;;;;;-144.47;41.03;53213.63;5047980;28;20470;-68
2022/05/03 08:35:24;;;;;;;18.00;8.00;;;;;;;-144.47;40.98;53181.84;5068045;28;20437;-67
2022/05/03 08:43:17;;;;;;;17.67;7.32;;;;;;;-144.47;40.23;53215.59;5071521;28;20045;-68
2022/05/03 08:45:47;;;;;;;15.48;7.38;;;;;;;-144.47;39.63;53191.78;5071701;28;20021;-68
2022/05/03 08:48:15;;;;;;;17.77;7.55;;;;;;;-144.47;39.05;53209.66;5066854;28;20098;-68
2022/05/03 08:50:41;;;;;;;16.77;7.18;;;;;;;-144.47;39.09;53197.72;5064830;28;20094;-67
2022/05/03 08:53:06;;;;;;;13.80;7.03;;;;;;;-144.47;38.97;53201.69;5053613;28;20045;-67
2022/05/03 08:55:31;;;;;;;22.02;7.85;;;;;;;-144.47;39.17;53217.59;5071015;28;20032;-66
2022/05/03 08:57:57;;;;;;;15.05;7.45;;;;;;;-144.47;38.89;53193.75;5071569;28;20580;-67
2022/05/03 09:00:24;;;;;;;17.90;7.75;;;;;;;-144.47;39.01;53217.59;5071022;28;20040;-67
2022/05/03 09:02:52;;;;;;;18.92;7.82;;;;;;;-144.47;38.64;53203.69;5068247;28;20033;-65
2022/05/03 09:05:18;;;;;;;12.55;7.47;;;;;;;-144.47;38.66;53205.66;5069416;28;20064;-68
2022/05/03 09:07:49;;;;;;;14.65;7.38;;;;;;;-144.47;38.57;53189.78;5068429;28;20117;-66
2022/05/03 09:10:26;;;;;;;22.38;11.20;;;;;;;-144.47;38.79;53179.84;5053760;28;20104;-70
2022/05/03 09:12:55;;;;;;;21.13;7.82;;;;;;;-144.47;38.26;53195.75;5071138;28;20047;-68
2022/05/03 09:15:33;;;;;;;17.90;8.15;;;;;;;-144.47;38.74;53193.75;5069790;28;20047;-68
2022/05/03 09:18:00;;;;;;;12.80;7.40;;;;;;;-144.47;38.56;53177.88;5063142;28;20395;-69
2022/05/03 09:26:11;;;;;;;13.15;8.43;;;;;;;-144.47;38.70;53187.78;5068674;28;20099;-68
2022/05/03 09:28:46;;;;;;;18.25;8.45;;;;;;;-144.47;38.77;53197.72;5070426;28;20044;-68
2022/05/03 09:31:12;;;;;;;17.13;8.07;;;;;;;-144.47;38.57;53183.81;5064119;28;20438;-65
2022/05/03 09:33:38;;;;;;;18.15;8.38;;;;;;;-144.47;38.62;53225.53;5055858;28;20029;-67
2022/05/03 09:36:09;;;;;;;15.48;7.65;;;;;;;-144.47;38.28;53191.78;5046984;28;20469;-67
2022/05/03 09:38:44;;;;;;;18.27;8.18;;;;;;;-144.47;38.36;53197.72;5067171;28;20040;-66
2022/05/03 09:41:14;;;;;;;14.52;7.80;;;;;;;-144.47;38.31;53160.00;5051596;28;20133;-68
2022/05/03 09:44:08;;;;;;;14.85;7.47;;;;;;;-144.47;38.69;53185.81;5067404;28;20032;-68
2022/05/03 09:46:51;;;;;;;21.92;7.78;;;;;;;-144.47;38.53;53181.84;5060496;28;20127;-69
2022/05/03 09:49:21;;;;;;;17.00;7.97;;;;;;;-144.47;38.46;53189.78;5065128;28;20031;-67
2022/05/03 09:51:48;;;;;;;13.90;7.57;;;;;;;-144.47;38.54;53197.72;5067377;28;20039;-70
2022/05/03 09:54:14;;;;;;;16.55;7.82;;;;;;;-144.47;38.61;53173.88;5070493;28;20037;-69
2022/05/03 09:56:41;;;;;;;16.60;7.97;;;;;;;-144.47;38.69;53209.66;5066144;28;20540;-68
2022/05/03 09:59:07;;;;;;;19.23;7.30;;;;;;;-144.47;38.37;53171.91;5069531;28;20100;-69
2022/05/03 10:01:36;;;;;;;17.02;8.43;;;;;;;-144.47;38.45;53179.84;5062523;28;20121;-67
2022/05/03 10:04:05;;;;;;;18.55;7.68;;;;;;;-144.47;38.49;53187.78;5068347;28;20025;-68
2022/05/03 10:06:32;;;;;;;18.75;8.20;;;;;;;-144.47;38.41;53187.78;5068416;28;20544;-67
2022/05/03 10:08:58;;;;;;;18.98;8.48;;;;;;;-144.47;38.13;53199.72;5067207;28;20044;-69
2022/05/03 10:11:26;;;;;;;22.98;8.75;;;;;;;-144.47;38.21;53197.72;5069595;28;20040;-69
2022/05/03 10:13:53;;;;;;;20.52;7.88;;;;;;;-144.47;38.25;53173.88;5064728;28;20029;-67
2022/05/03 10:21:56;;;;;;;15.00;8.02;;;;;;;-144.47;37.76;53173.88;5056147;28;20068;-68
2022/05/03 10:24:22;;;;;;;16.40;7.15;;;;;;;-144.47;37.72;53181.84;5065947;28;20624;-68
2022/05/03 10:27:06;;;;;;;19.65;8.95;;;;;;;-144.47;37.62;53179.84;5069156;28;20040;-67
2022/05/03 10:29:34;;;;;;;18.02;8.55;;;;;;;-144.47;37.82;53150.06;5066513;28;20035;-66
2022/05/03 10:32:02;;;;;;;15.73;8.85;;;;;;;-144.47;37.90;53201.69;5069246;28;20031;-68
2022/05/03 10:34:40;;;;;;;19.77;8.02;;;;;;;-144.47;37.79;53179.84;5067196;28;20036;-69
2022/05/03 10:37:13;;;;;;;14.30;7.70;;;;;;;-144.47;37.50;53177.88;5045659;28;20115;-68
2022/05/03 10:39:51;;;;;;;14.48;7.38;;;;;;;-144.47;37.40;53163.97;5065943;28;20041;-67
2022/05/03 10:42:20;;;;;;;20.42;8.15;;;;;;;-144.47;37.37;53158.00;5063987;28;20036;-67
2022/05/03 10:44:52;;;;;;;20.80;7.95;;;;;;;-144.47;36.70;53183.81;5066651;28;20040;-67
2022/05/03 10:47:20;;;;;;;14.07;7.93;;;;;;;-144.47;36.84;53219.56;5065175;28;20119;-68
2022/05/03 10:50:11;;;;;;;21.80;9.48;;;;;;;-144.47;36.76;53177.88;5058691;28;20025;-69
2022/05/03 10:52:37;;;;;;;27.08;9.35;;;;;;;-144.47;36.60;53191.78;5045534;28;20031;-67
2022/05/03 10:55:10;;;;;;;19.45;8.90;;;;;;;-144.47;36.93;53197.72;5067872;28;20096;-67
2022/05/03 10:58:12;;;;;;;23.80;9.80;;;;;;;-144.47;37.41;53181.84;5068376;28;20620;-69
2022/05/03 11:01:14;;;;;;;18.05;9.75;;;;;;;-144.47;37.04;53189.78;5064600;28;20540;-69
2022/05/03 11:03:51;;;;;;;21.00;9.73;;;;;;;-144.47;36.98;53187.78;5057550;28;20083;-67
2022/05/03 11:06:19;;;;;;;27.08;9.05;;;;;;;-144.47;36.95;53187.78;5065234;28;20619;-69
2022/05/03 11:11:34;;;;;;;27.45;9.70;;;;;;;-144.47;36.83;53179.84;5058325;28;20056;-71
2022/05/03 11:13:59;;;;;;;17.88;8.93;;;;;;;-144.47;36.90;53185.81;5063056;28;20043;-68
2022/05/03 11:16:26;;;;;;;18.60;10.20;;;;;;;-144.47;36.80;53154.03;5066164;28;20024;-68
2022/05/03 11:18:53;;;;;;;26.55;9.95;;;;;;;-144.47;36.62;53146.09;5042479;28;20024;-70
2022/05/03 11:21:18;;;;;;;21.45;9.52;;;;;;;-144.47;36.80;53187.78;5066953;28;20090;-69
2022/05/03 11:23:48;;;;;;;22.40;9.30;;;;;;;-144.47;36.90;53175.88;5066954;28;20040;-69
2022/05/03 11:26:16;;;;;;;31.65;9.60;;;;;;;-144.47;36.58;53165.94;5066733;28;20040;-68
2022/05/03 11:28:45;;;;;;;19.30;10.48;;;;;;;-144.47;36.39;53161.97;5063330;28;20047;-69
2022/05/03 11:31:10;;;;;;;17.95;9.50;;;;;;;-144.47;36.08;53185.81;5050766;28;20070;-68
2022/05/03 11:33:52;;;;;;;19.70;9.15;;;;;;;-144.47;35.96;53193.75;5055698;28;20452;-67
2022/05/03 11:36:21;;;;;;;27.70;9.55;;;;;;;-144.47;35.90;53154.03;5056553;28;20036;-71
2022/05/03 11:38:50;;;;;;;18.45;9.23;;;;;;;-144.47;35.71;53189.78;5062833;28;20121;-68
2022/05/03 11:41:22;;;;;;;22.77;10.25;;;;;;;-144.47;35.68;53171.91;5066818;28;20089;-70
2022/05/03 11:43:48;;;;;;;24.70;9.70;;;;;;;-144.47;35.61;53152.03;5065492;28;20037;-68
2022/05/03 11:46:16;;;;;;;25.25;8.57;;;;;;;-144.47;35.70;53167.94;5062168;28;20367;-68
2022/05/03 11:48:45;;;;;;;26.08;9.63;;;;;;;-144.47;35.78;53179.84;5068870;28;20094;-69
2022/05/03 11:56:45;;;;;;;17.77;9.43;;;;;;;-144.47;35.20;53150.06;5062253;22;20084;-73
2022/05/03 11:59:10;;;;;;;14.95;9.35;;;;;;;-144.47;34.94;53181.84;5030182;28;20073;-72